Time;durP1;ratioP1;P1;durP2;ratioP2;P2;SDS_P1;SDS_P2;PMS_P1;PMS_P2;Temp;Humidity;BMP_temperature;BMP_pressure;BME280_temperature;BME280_humidity;BME280_pressure;Samples;Min_cycle;Max_cycle;Signal;HPM_P1;HPM_P2
2021/09/25 00:00:37;;;;;;;1999.90;999.90;;;;;;;14.50;47.80;100934.31;4999819;28;97926;-74
2021/09/25 00:03:06;;;;;;;1999.90;999.90;;;;;;;14.50;47.94;100929.81;4982147;28;99936;-78
2021/09/25 00:05:37;;;;;;;1999.90;999.90;;;;;;;14.50;48.05;100934.31;5000738;28;97783;-76
2021/09/25 00:08:06;;;;;;;1999.90;999.90;;;;;;;14.52;47.78;100937.84;5003676;28;97519;-74
2021/09/25 00:10:34;;;;;;;1999.90;999.90;;;;;;;14.49;47.87;100935.16;5020843;27;98130;-76
2021/09/25 00:13:03;;;;;;;1999.90;999.90;;;;;;;14.48;47.82;100936.94;5003726;28;98010;-76
2021/09/25 00:15:31;;;;;;;1999.90;999.90;;;;;;;14.49;47.91;100937.84;5004771;28;98810;-74
2021/09/25 00:17:58;;;;;;;1999.90;999.90;;;;;;;14.49;47.86;100940.53;5004888;28;97581;-76
2021/09/25 00:20:27;;;;;;;1999.90;999.90;;;;;;;14.48;48.16;100936.06;5005218;28;96927;-74
2021/09/25 00:22:57;;;;;;;1999.90;999.90;;;;;;;14.49;48.11;100940.53;5003628;28;97957;-74
2021/09/25 00:25:25;;;;;;;1999.90;999.90;;;;;;;14.48;48.13;100941.44;5004168;28;97602;-73
2021/09/25 00:27:53;;;;;;;1999.90;999.90;;;;;;;14.48;47.86;100944.09;5002494;28;97329;-76
2021/09/25 00:30:21;;;;;;;1999.90;999.90;;;;;;;14.49;47.89;100938.75;5002388;28;97511;-74
2021/09/25 00:32:49;;;;;;;1999.90;999.90;;;;;;;14.50;48.12;100937.84;5019396;27;97714;-75
2021/09/25 00:35:17;;;;;;;1999.90;999.90;;;;;;;14.51;47.71;100936.09;5003224;28;97547;-74
2021/09/25 00:37:45;;;;;;;1999.90;999.90;;;;;;;14.50;48.09;100942.34;5002656;28;97155;-76
2021/09/25 00:40:16;;;;;;;1999.90;999.90;;;;;;;14.48;47.79;100938.75;5001453;28;97662;-75
2021/09/25 00:42:45;;;;;;;1999.90;999.90;;;;;;;14.47;48.17;100942.28;5001117;28;101060;-75
2021/09/25 00:45:14;;;;;;;1999.90;999.90;;;;;;;14.45;48.29;100938.72;4987396;28;97749;-74
2021/09/25 00:47:41;;;;;;;1999.90;999.90;;;;;;;14.47;48.12;100942.28;5005979;28;96986;-74
2021/09/25 00:50:10;;;;;;;1999.90;999.90;;;;;;;14.49;48.10;100948.56;5005162;27;97268;-74
2021/09/25 00:52:38;;;;;;;1999.90;999.90;;;;;;;14.48;48.12;100944.09;5005186;28;97921;-77
2021/09/25 00:55:07;;;;;;;1999.90;999.90;;;;;;;14.47;47.80;100939.63;5005126;28;97922;-74
2021/09/25 00:57:37;;;;;;;1999.90;999.90;;;;;;;14.47;48.05;100947.66;5004733;28;97132;-75
2021/09/25 01:00:07;;;;;;;1999.90;999.90;;;;;;;14.47;48.21;100948.56;5002821;28;97619;-76
2021/09/25 01:02:36;;;;;;;1999.90;999.90;;;;;;;14.50;47.90;100950.38;5017332;27;100257;-74
2021/09/25 01:05:04;;;;;;;1999.90;999.90;;;;;;;14.49;47.93;100952.16;5003857;28;99012;-75
2021/09/25 01:07:33;;;;;;;1999.90;999.90;;;;;;;14.51;48.16;100949.47;5000431;28;97726;-74
2021/09/25 01:10:01;;;;;;;1999.90;999.90;;;;;;;14.50;48.12;100956.59;4977396;28;97857;-76
2021/09/25 01:12:28;;;;;;;1999.90;999.90;;;;;;;14.51;47.78;100960.19;4982059;28;100583;-74
2021/09/25 01:14:58;;;;;;;1999.90;999.90;;;;;;;14.49;48.10;100961.94;5002013;28;98872;-73
2021/09/25 01:17:25;;;;;;;1999.90;999.90;;;;;;;14.46;48.12;100945.88;4998514;28;97161;-75
2021/09/25 01:19:53;;;;;;;1999.90;999.90;;;;;;;14.43;47.88;100956.53;5000499;28;97433;-72
2021/09/25 01:22:23;;;;;;;1999.90;999.90;;;;;;;14.38;47.90;100959.19;5002683;28;101253;-73
2021/09/25 01:24:51;;;;;;;1999.90;999.90;;;;;;;14.36;47.94;100960.06;4999707;28;98602;-74
2021/09/25 01:27:19;;;;;;;1999.90;999.90;;;;;;;14.33;48.18;100954.69;4983360;28;97486;-76
2021/09/25 01:29:47;;;;;;;1999.90;999.90;;;;;;;14.30;47.97;100955.53;5000624;28;98342;-71
2021/09/25 01:32:15;;;;;;;1999.90;999.90;;;;;;;14.29;48.26;100958.22;4983656;28;100475;-77
2021/09/25 01:34:42;;;;;;;1999.90;999.90;;;;;;;14.22;48.43;100962.63;5002532;28;97893;-74
2021/09/25 01:37:10;;;;;;;1999.90;999.90;;;;;;;14.17;48.56;100963.47;5001969;28;97276;-76
2021/09/25 01:39:39;;;;;;;1999.90;999.90;;;;;;;14.13;48.48;100959.88;5003039;28;97805;-75
2021/09/25 01:42:07;;;;;;;1999.90;999.90;;;;;;;14.08;48.72;100959.81;5002037;28;97606;-73
2021/09/25 01:44:35;;;;;;;1999.90;999.90;;;;;;;14.06;48.71;100971.41;5002050;28;98595;-75
2021/09/25 01:47:03;;;;;;;1999.90;999.90;;;;;;;14.04;48.64;100971.34;5000878;28;97266;-77
2021/09/25 01:49:45;;;;;;;1999.90;999.90;;;;;;;14.02;48.96;100967.75;4999994;28;97142;-74
2021/09/25 01:52:13;;;;;;;1999.90;999.90;;;;;;;14.00;48.86;100976.69;5002410;28;97716;-74
2021/09/25 01:54:42;;;;;;;1999.90;999.90;;;;;;;13.96;49.12;100973.06;5000079;28;97316;-79
2021/09/25 01:57:10;;;;;;;1999.90;999.90;;;;;;;13.94;48.98;100973.94;5001682;28;97798;-74
2021/09/25 01:59:38;;;;;;;1999.90;999.90;;;;;;;13.88;49.05;100977.44;5001290;28;97846;-77
2021/09/25 02:02:07;;;;;;;1999.90;999.90;;;;;;;13.86;49.21;100981.88;4997571;28;99455;-75
2021/09/25 02:04:36;;;;;;;1999.90;999.90;;;;;;;13.86;49.13;100979.19;4998584;28;97965;-77
2021/09/25 02:07:04;;;;;;;1999.90;999.90;;;;;;;13.85;49.35;100974.75;4981435;28;98102;-74
2021/09/25 02:09:32;;;;;;;1999.90;999.90;;;;;;;13.83;49.21;100971.16;5000041;28;96914;-73
2021/09/25 02:12:01;;;;;;;1999.90;999.90;;;;;;;13.82;49.40;100971.13;4998291;28;98916;-75
2021/09/25 02:14:28;;;;;;;1999.90;999.90;;;;;;;13.81;49.58;100969.31;4999693;28;97667;-76
2021/09/25 02:16:56;;;;;;;1999.90;999.90;;;;;;;13.80;49.59;100962.19;5001341;28;96875;-74
2021/09/25 02:19:24;;;;;;;1999.90;999.90;;;;;;;13.78;49.73;100970.19;5001534;28;97027;-76
2021/09/25 02:21:52;;;;;;;1999.90;999.90;;;;;;;13.76;49.65;100969.25;5001425;28;97393;-74
2021/09/25 02:24:20;;;;;;;1999.90;999.90;;;;;;;13.71;49.83;100968.31;4983009;28;99004;-74
2021/09/25 02:26:48;;;;;;;1999.90;999.90;;;;;;;13.70;49.64;100966.50;4983724;28;98071;-74
2021/09/25 02:29:17;;;;;;;1999.90;999.90;;;;;;;13.67;50.08;100960.22;4999803;28;97768;-77
2021/09/25 02:31:45;;;;;;;1999.90;999.90;;;;;;;13.64;50.09;100961.06;4998001;28;100063;-74
2021/09/25 02:34:12;;;;;;;1999.90;999.90;;;;;;;13.64;50.32;100963.75;5002546;28;97632;-75
2021/09/25 02:36:40;;;;;;;1999.90;999.90;;;;;;;13.63;50.25;100958.38;5001324;28;97472;-75
2021/09/25 02:39:08;;;;;;;1999.90;999.90;;;;;;;13.58;50.53;100961.03;5001366;28;97574;-74
2021/09/25 02:41:36;;;;;;;1999.90;999.90;;;;;;;13.58;50.65;100965.47;5002068;28;99415;-75
2021/09/25 02:44:04;;;;;;;1999.90;999.90;;;;;;;13.55;50.63;100971.66;5000246;28;99159;-78
2021/09/25 02:46:33;;;;;;;1999.90;999.90;;;;;;;13.54;50.76;100963.63;5001323;28;97797;-75
2021/09/25 02:49:01;;;;;;;1999.90;999.90;;;;;;;13.54;50.73;100963.63;5002272;28;97219;-74
2021/09/25 02:51:29;;;;;;;1999.90;999.90;;;;;;;13.54;50.91;100964.53;5002631;28;98245;-75
2021/09/25 02:53:56;;;;;;;1999.90;999.90;;;;;;;13.55;50.94;100965.44;5001074;28;97763;-72
2021/09/25 02:56:24;;;;;;;1999.90;999.90;;;;;;;13.53;50.89;100967.19;5001087;28;97778;-76
2021/09/25 02:58:52;;;;;;;1999.90;999.90;;;;;;;13.52;51.07;100968.97;5000516;28;97605;-78
2021/09/25 03:01:41;;;;;;;1999.90;999.90;;;;;;;13.53;51.12;100975.22;4999697;28;97591;-74
2021/09/25 03:04:09;;;;;;;1999.90;999.90;;;;;;;13.52;51.11;100974.31;4999813;28;97604;-75
2021/09/25 03:06:37;;;;;;;1999.90;999.90;;;;;;;13.53;51.13;100973.41;5002338;28;97323;-74
2021/09/25 03:09:05;;;;;;;1999.90;999.90;;;;;;;13.55;51.07;100986.84;4999609;28;96915;-73
2021/09/25 03:11:33;;;;;;;1999.90;999.90;;;;;;;13.23;51.78;100978.38;5000533;28;97879;-75
2021/09/25 03:14:01;;;;;;;1999.90;999.90;;;;;;;13.09;52.23;100986.19;5003690;28;98677;-73
2021/09/25 03:16:28;;;;;;;1999.90;999.90;;;;;;;13.01;52.23;100981.63;5005460;28;97353;-80
2021/09/25 03:18:58;;;;;;;1999.90;999.90;;;;;;;13.21;52.03;100985.47;4999781;28;97098;-77
2021/09/25 03:21:26;;;;;;;1999.90;999.90;;;;;;;13.30;51.86;100982.94;4999082;28;98776;-73
2021/09/25 03:23:54;;;;;;;1999.90;999.90;;;;;;;13.36;51.92;100988.38;4998885;28;99498;-75
2021/09/25 03:26:21;;;;;;;1999.90;999.90;;;;;;;13.43;51.74;100978.63;5000644;28;97490;-74
2021/09/25 03:28:49;;;;;;;1999.90;999.90;;;;;;;13.45;51.67;100980.47;4999446;28;96786;-73
2021/09/25 03:31:17;;;;;;;1999.90;999.90;;;;;;;13.51;51.61;100980.56;4999476;28;96997;-76
2021/09/25 03:33:45;;;;;;;1999.90;999.90;;;;;;;13.56;51.52;100978.81;4998800;28;96868;-74
2021/09/25 03:36:14;;;;;;;1999.90;999.90;;;;;;;13.62;51.43;100981.53;4999227;28;98018;-74
2021/09/25 03:38:42;;;;;;;1999.90;999.90;;;;;;;13.66;51.24;100971.81;4998368;28;97193;-75
2021/09/25 03:41:09;;;;;;;1999.90;999.90;;;;;;;13.69;51.19;100972.75;4998395;28;99603;-75
2021/09/25 03:43:37;;;;;;;1999.90;999.90;;;;;;;13.74;51.15;100975.47;5000454;28;97620;-74
2021/09/25 03:46:05;;;;;;;1999.90;999.90;;;;;;;13.76;51.16;100979.94;4999864;28;96697;-78
2021/09/25 03:48:33;;;;;;;1999.90;999.90;;;;;;;13.80;50.96;100970.22;4997119;28;97302;-77
2021/09/25 03:51:02;;;;;;;1999.90;999.90;;;;;;;13.84;50.79;100972.06;4997288;28;117494;-75
2021/09/25 03:53:31;;;;;;;1999.90;999.90;;;;;;;13.87;50.97;100981.00;4998939;28;97768;-74
2021/09/25 03:56:00;;;;;;;1999.90;999.90;;;;;;;13.88;50.76;100977.44;5000384;28;97102;-74
2021/09/25 03:58:28;;;;;;;1999.90;999.90;;;;;;;13.90;50.58;100978.34;4999169;28;97591;-74
2021/09/25 04:00:57;;;;;;;1999.90;999.90;;;;;;;13.90;50.81;100973.00;4996574;28;98820;-77
2021/09/25 04:03:25;;;;;;;1999.90;999.90;;;;;;;13.89;50.57;100984.59;4994265;28;100415;-75
2021/09/25 04:05:54;;;;;;;1999.90;999.90;;;;;;;13.92;50.77;100983.72;4999021;28;97418;-75
2021/09/25 04:08:22;;;;;;;1999.90;999.90;;;;;;;13.94;50.78;100985.53;4996145;28;97577;-76
2021/09/25 04:10:52;;;;;;;1999.90;999.90;;;;;;;13.97;50.51;100992.69;4997196;28;100805;-73
2021/09/25 04:13:19;;;;;;;1999.90;999.90;;;;;;;13.99;50.51;100989.16;4999735;28;99365;-75
2021/09/25 04:15:47;;;;;;;1999.90;999.90;;;;;;;14.01;50.36;100984.72;5000875;28;96992;-74
2021/09/25 04:18:15;;;;;;;1999.90;999.90;;;;;;;14.02;50.42;100988.28;4999574;28;96950;-75
2021/09/25 04:20:43;;;;;;;1999.90;999.90;;;;;;;13.99;50.40;100990.91;4997037;28;98284;-73
2021/09/25 04:23:11;;;;;;;1999.90;999.90;;;;;;;13.98;50.21;101002.53;4998593;28;97594;-76
2021/09/25 04:25:39;;;;;;;1999.90;999.90;;;;;;;13.96;50.38;100994.47;4998327;28;97571;-74
2021/09/25 04:28:09;;;;;;;1999.90;999.90;;;;;;;13.96;50.35;100999.84;4999389;28;97886;-74
2021/09/25 04:30:38;;;;;;;1999.90;999.90;;;;;;;13.95;50.34;100998.03;4998437;28;100107;-74
2021/09/25 04:33:07;;;;;;;1999.90;999.90;;;;;;;13.93;50.38;100993.56;4997813;28;97999;-75
2021/09/25 04:35:35;;;;;;;1999.90;999.90;;;;;;;13.91;50.58;100996.22;4999897;28;97639;-75
2021/09/25 04:38:03;;;;;;;1999.90;999.90;;;;;;;13.91;50.31;101001.56;4996367;28;97422;-74
2021/09/25 04:40:31;;;;;;;1999.90;999.90;;;;;;;13.90;50.35;101009.56;4997919;28;97792;-74
2021/09/25 04:42:59;;;;;;;1999.90;999.90;;;;;;;13.88;50.42;101009.53;4980127;28;98487;-77
2021/09/25 04:45:29;;;;;;;1999.90;999.90;;;;;;;13.88;50.61;101013.97;5014592;27;97255;-74
2021/09/25 04:47:56;;;;;;;1999.90;999.90;;;;;;;13.90;50.50;101018.47;4999432;28;97034;-75
2021/09/25 04:50:29;;;;;;;1999.90;999.90;;;;;;;13.91;50.45;101024.75;4998930;28;98884;-74
2021/09/25 04:53:05;;;;;;;1999.90;999.90;;;;;;;13.87;50.50;101029.16;5000995;28;97596;-77
2021/09/25 04:55:33;;;;;;;1999.90;999.90;;;;;;;13.84;50.69;101028.22;5019201;27;97825;-75
2021/09/25 04:58:01;;;;;;;1999.90;999.90;;;;;;;13.81;51.05;101033.53;4999466;28;97017;-75
2021/09/25 05:00:30;;;;;;;1999.90;999.90;;;;;;;13.77;51.38;101027.22;5016988;27;99516;-75
2021/09/25 05:02:58;;;;;;;1999.90;999.90;;;;;;;13.74;51.38;101026.28;5000333;28;99605;-75
2021/09/25 05:05:27;;;;;;;1999.90;999.90;;;;;;;13.73;51.64;101024.50;4987592;28;97433;-75
2021/09/25 05:07:55;;;;;;;1999.90;999.90;;;;;;;13.74;51.67;101024.50;5007012;28;96772;-73
2021/09/25 05:10:23;;;;;;;1999.90;999.90;;;;;;;13.73;51.54;101014.66;5002808;28;99505;-79
2021/09/25 05:12:51;;;;;;;1999.90;999.90;;;;;;;13.71;51.59;101027.16;5006705;28;97895;-75
2021/09/25 05:15:19;;;;;;;1999.90;999.90;;;;;;;13.70;51.72;101024.44;5007321;28;97135;-75
2021/09/25 05:17:48;;;;;;;1999.90;999.90;;;;;;;13.69;51.90;101020.88;5004077;28;97256;-76
2021/09/25 05:20:16;;;;;;;1999.90;999.90;;;;;;;13.70;51.92;101029.78;5001472;28;98696;-74
2021/09/25 05:22:43;;;;;;;1999.90;999.90;;;;;;;13.71;51.70;101037.84;5005381;28;97848;-78
2021/09/25 05:25:11;;;;;;;1999.90;999.90;;;;;;;13.72;51.79;101028.94;5007033;28;97283;-76
2021/09/25 05:27:40;;;;;;;1999.90;999.90;;;;;;;13.73;51.69;101024.50;5006792;28;97353;-75
2021/09/25 05:30:09;;;;;;;1999.90;999.90;;;;;;;13.74;51.77;101031.63;5004833;28;97231;-76
2021/09/25 05:32:37;;;;;;;1999.90;999.90;;;;;;;13.75;51.69;101034.31;5005652;28;97610;-74
2021/09/25 05:35:07;;;;;;;1999.90;999.90;;;;;;;13.79;51.53;101040.63;5006639;28;97742;-74
2021/09/25 05:37:35;;;;;;;1999.90;999.90;;;;;;;13.78;51.39;101038.81;5004553;28;96797;-76
2021/09/25 05:40:03;;;;;;;1999.90;999.90;;;;;;;13.77;51.60;101035.22;5004199;28;100070;-76
2021/09/25 05:42:31;;;;;;;1999.90;999.90;;;;;;;13.75;51.42;101028.97;5004944;28;97855;-75
2021/09/25 05:44:59;;;;;;;1999.90;999.90;;;;;;;13.75;51.51;101044.13;5005842;28;99013;-75
2021/09/25 05:47:27;;;;;;;1999.90;999.90;;;;;;;13.73;51.51;101043.22;5003214;28;97640;-76
2021/09/25 05:49:55;;;;;;;1999.90;999.90;;;;;;;13.71;51.48;101043.19;5004864;28;99189;-75
2021/09/25 05:52:24;;;;;;;1999.90;999.90;;;;;;;13.67;51.66;101036.00;5005018;28;99779;-77
2021/09/25 05:54:52;;;;;;;1999.90;999.90;;;;;;;13.61;51.94;101038.59;5001560;28;97772;-77
2021/09/25 05:57:19;;;;;;;1999.90;999.90;;;;;;;13.57;52.10;101038.56;5000960;28;98326;-76
2021/09/25 05:59:47;;;;;;;1999.90;999.90;;;;;;;13.55;52.20;101034.97;5001750;28;98479;-77
2021/09/25 06:02:15;;;;;;;1999.90;999.90;;;;;;;13.54;52.48;101039.41;5004522;28;97907;-76
2021/09/25 06:04:43;;;;;;;1999.90;999.90;;;;;;;13.52;52.43;101046.50;5004163;28;97410;-76
2021/09/25 06:07:11;;;;;;;1999.90;999.90;;;;;;;13.50;52.43;101044.69;5005196;28;97751;-75
2021/09/25 06:09:41;;;;;;;1999.90;999.90;;;;;;;13.48;52.53;101050.00;5003293;28;98345;-76
2021/09/25 06:12:09;;;;;;;1999.90;999.90;;;;;;;13.47;52.61;101045.56;5002632;28;99158;-76
2021/09/25 06:14:39;;;;;;;1999.90;999.90;;;;;;;13.47;52.73;101050.00;5003536;28;98160;-76
2021/09/25 06:17:07;;;;;;;1999.90;999.90;;;;;;;13.45;52.92;101044.63;5003330;28;97323;-77
2021/09/25 06:19:35;;;;;;;1999.90;999.90;;;;;;;13.45;52.97;101049.06;5002042;28;100675;-75
2021/09/25 06:22:03;;;;;;;1999.90;999.90;;;;;;;13.44;53.19;101047.28;5002067;28;97765;-76
2021/09/25 06:24:31;;;;;;;1999.90;999.90;;;;;;;13.43;53.03;101050.81;5004321;28;97033;-76
2021/09/25 06:27:00;;;;;;;1999.90;999.90;;;;;;;13.44;53.07;101048.16;5002706;28;97841;-76
2021/09/25 06:29:28;;;;;;;1999.90;999.90;;;;;;;13.44;53.09;101056.19;5004558;28;98058;-76
2021/09/25 06:31:56;;;;;;;1999.90;999.90;;;;;;;13.44;53.05;101053.50;5003090;28;97976;-75
2021/09/25 06:34:24;;;;;;;1999.90;999.90;;;;;;;13.45;53.19;101054.41;5003041;28;97553;-76
2021/09/25 06:36:52;;;;;;;1999.90;999.90;;;;;;;13.46;53.08;101051.75;5002806;28;98080;-76
2021/09/25 06:39:23;;;;;;;1999.90;999.90;;;;;;;13.48;53.19;101051.78;5002894;28;98838;-77
2021/09/25 06:41:54;;;;;;;1999.90;999.90;;;;;;;13.49;52.99;101054.50;5002828;28;97889;-76
2021/09/25 06:44:23;;;;;;;1999.90;999.90;;;;;;;13.51;53.07;101050.06;5001169;28;97515;-77
2021/09/25 06:46:51;;;;;;;1999.90;999.90;;;;;;;13.53;53.01;101048.28;4999879;28;97470;-76
2021/09/25 06:49:19;;;;;;;1999.90;999.90;;;;;;;13.54;53.05;101060.78;4979100;28;98962;-76
2021/09/25 06:51:46;;;;;;;1999.90;999.90;;;;;;;13.56;53.07;101053.69;4998359;28;99808;-76
2021/09/25 06:54:17;;;;;;;1999.90;999.90;;;;;;;13.59;53.00;101053.72;4999557;28;97411;-75
2021/09/25 06:56:45;;;;;;;1999.90;999.90;;;;;;;13.63;52.90;101055.56;4999456;28;97456;-77
2021/09/25 06:59:13;;;;;;;1999.90;999.90;;;;;;;13.64;52.87;101062.69;4997548;28;97486;-73
2021/09/25 07:01:45;;;;;;;1999.90;999.90;;;;;;;13.66;52.78;101058.25;4989455;28;97000;-75
2021/09/25 07:04:13;;;;;;;1999.90;999.90;;;;;;;13.67;52.98;101060.09;4998960;28;97204;-74
2021/09/25 07:06:41;;;;;;;1999.90;999.90;;;;;;;13.71;52.64;101063.69;4996843;28;97761;-75
2021/09/25 07:09:09;;;;;;;1999.90;999.90;;;;;;;13.73;52.58;101061.94;4995435;28;99826;-76
2021/09/25 07:11:37;;;;;;;1999.90;999.90;;;;;;;13.76;52.56;101061.97;4992995;28;97836;-75
2021/09/25 07:14:05;;;;;;;1999.90;999.90;;;;;;;13.79;52.40;101067.38;4995342;28;97626;-74
2021/09/25 07:16:36;;;;;;;1999.90;999.90;;;;;;;13.83;52.25;101066.53;4995514;28;97303;-73
2021/09/25 07:19:05;;;;;;;1999.90;999.90;;;;;;;13.86;52.15;101075.50;4996327;28;98592;-75
2021/09/25 07:21:33;;;;;;;1999.90;999.90;;;;;;;13.90;52.14;101076.44;4997846;28;97745;-74
2021/09/25 07:24:01;;;;;;;1999.90;999.90;;;;;;;13.96;52.28;101073.84;4999145;28;97655;-76
2021/09/25 07:26:29;;;;;;;1999.90;999.90;;;;;;;13.99;52.11;101072.09;4998137;28;98103;-75
2021/09/25 07:28:57;;;;;;;1999.90;999.90;;;;;;;14.02;51.79;101081.94;4998290;28;97802;-75
2021/09/25 07:31:25;;;;;;;1999.90;999.90;;;;;;;14.06;51.72;101083.78;4996792;28;100403;-74
2021/09/25 07:33:52;;;;;;;1999.90;999.90;;;;;;;14.07;51.60;101097.19;4999632;28;97262;-73
2021/09/25 07:36:24;;;;;;;1999.90;999.90;;;;;;;14.09;51.60;101094.53;5002396;28;97392;-75
2021/09/25 07:38:51;;;;;;;1999.90;999.90;;;;;;;14.10;51.85;101091.84;4992008;28;97683;-75
2021/09/25 07:41:23;;;;;;;1999.90;999.90;;;;;;;14.13;51.54;101089.19;4995473;28;98415;-73
2021/09/25 07:43:50;;;;;;;1999.90;999.90;;;;;;;14.17;51.75;101090.13;4996436;28;97930;-73
2021/09/25 07:46:19;;;;;;;1999.90;999.90;;;;;;;14.20;51.67;101090.19;4996151;28;97547;-74
2021/09/25 07:48:50;;;;;;;1999.90;999.90;;;;;;;14.24;51.38;101101.81;4996739;28;97993;-74
2021/09/25 07:51:18;;;;;;;1999.90;999.90;;;;;;;14.25;51.21;101101.84;4998193;28;97695;-76
2021/09/25 07:53:49;;;;;;;1999.90;999.90;;;;;;;14.31;51.41;101101.00;4993794;28;97941;-74
2021/09/25 07:56:17;;;;;;;1999.90;999.90;;;;;;;14.31;51.24;101106.38;4997684;28;97472;-75
2021/09/25 07:58:45;;;;;;;1999.90;999.90;;;;;;;14.35;50.92;101110.88;4997026;28;98987;-75
2021/09/25 08:01:13;;;;;;;1999.90;999.90;;;;;;;14.35;50.81;101113.56;5008462;27;99117;-76
2021/09/25 08:03:43;;;;;;;1999.90;999.90;;;;;;;14.36;50.79;101112.66;4995197;28;97437;-75
2021/09/25 08:06:14;;;;;;;1999.90;999.90;;;;;;;14.38;50.61;101124.28;4997261;28;97250;-77
2021/09/25 08:08:43;;;;;;;1999.90;999.90;;;;;;;14.40;50.89;101125.19;4996306;28;97623;-74
2021/09/25 08:11:12;;;;;;;1999.90;999.90;;;;;;;14.40;50.56;101122.53;4996103;28;98959;-76
2021/09/25 08:13:40;;;;;;;1999.90;999.90;;;;;;;14.41;50.80;101130.56;4996904;28;98212;-76
2021/09/25 08:16:08;;;;;;;1999.90;999.90;;;;;;;14.16;51.48;101128.50;4997995;28;98018;-75
2021/09/25 08:18:36;;;;;;;1999.90;999.90;;;;;;;14.03;51.77;101135.47;4997865;28;97987;-74
2021/09/25 08:21:04;;;;;;;1999.90;999.90;;;;;;;13.93;52.09;101130.88;4996358;28;98019;-76
2021/09/25 08:23:32;;;;;;;1999.90;999.90;;;;;;;14.10;51.28;101129.31;4984876;28;97700;-76
2021/09/25 08:26:00;;;;;;;1999.90;999.90;;;;;;;14.18;51.30;101129.41;4981379;28;97453;-79
2021/09/25 08:28:29;;;;;;;1999.90;999.90;;;;;;;14.24;51.14;101136.63;4997156;28;97956;-77
2021/09/25 08:30:57;;;;;;;1999.90;999.90;;;;;;;14.30;51.05;101142.94;4997158;28;101174;-77
2021/09/25 08:33:28;;;;;;;1999.90;999.90;;;;;;;14.37;50.96;101149.28;4999354;28;97407;-80
2021/09/25 08:35:56;;;;;;;1999.90;999.90;;;;;;;14.38;50.66;101143.03;5004540;28;97559;-80
2021/09/25 08:38:23;;;;;;;1999.90;999.90;;;;;;;14.41;50.84;101143.97;5002933;28;97851;-78
2021/09/25 08:40:52;;;;;;;1999.90;999.90;;;;;;;14.43;50.63;101147.56;5002378;28;97528;-80
2021/09/25 08:43:20;;;;;;;1999.90;999.90;;;;;;;14.44;50.65;101148.47;5004843;28;97528;-78
2021/09/25 08:45:52;;;;;;;1999.90;999.90;;;;;;;14.47;50.52;101153.84;5002800;28;97086;-76
2021/09/25 08:48:20;;;;;;;1999.90;999.90;;;;;;;14.52;50.55;101153.00;5002242;28;100761;-79
2021/09/25 08:50:48;;;;;;;1999.90;999.90;;;;;;;14.55;50.41;101155.78;5003645;28;99479;-77
2021/09/25 08:53:16;;;;;;;1999.90;999.90;;;;;;;14.58;50.38;101157.56;5006777;28;96912;-81
2021/09/25 08:55:43;;;;;;;1999.90;999.90;;;;;;;14.60;50.61;101163.84;5002953;28;97424;-78
2021/09/25 08:58:11;;;;;;;1999.90;999.90;;;;;;;14.61;50.29;101169.22;4997238;28;99334;-77
2021/09/25 09:00:42;;;;;;;1999.90;999.90;;;;;;;14.62;50.19;101167.44;4994529;28;99355;-78
2021/09/25 09:03:36;;;;;;;1999.90;999.90;;;;;;;14.61;50.30;101171.00;5001593;28;97284;-76
2021/09/25 09:06:10;;;;;;;1999.90;999.90;;;;;;;14.62;50.35;101167.44;4978581;28;97491;-78
2021/09/25 09:08:38;;;;;;;1999.90;999.90;;;;;;;14.59;50.53;101159.38;4994648;28;98614;-78
2021/09/25 09:11:07;;;;;;;1999.90;999.90;;;;;;;14.59;50.04;101160.25;4999881;28;97462;-78
2021/09/25 09:13:41;;;;;;;1999.90;999.90;;;;;;;14.62;50.12;101165.66;4989494;28;97973;-79
2021/09/25 09:16:11;;;;;;;1999.90;999.90;;;;;;;14.64;49.66;101169.25;4996539;28;97327;-78
2021/09/25 09:18:42;;;;;;;1999.90;999.90;;;;;;;14.66;49.42;101163.91;4976629;28;100005;-78
2021/09/25 09:21:13;;;;;;;1999.90;999.90;;;;;;;14.65;49.69;101172.81;4995743;28;98674;-77
2021/09/25 09:23:43;;;;;;;1999.90;999.90;;;;;;;14.66;49.27;101163.91;4997307;28;97659;-78
2021/09/25 09:26:15;;;;;;;1999.90;999.90;;;;;;;14.65;49.25;101164.78;4999087;28;97556;-78
2021/09/25 09:28:45;;;;;;;1999.90;999.90;;;;;;;14.67;49.54;101168.38;4999016;28;98191;-78
2021/09/25 09:31:13;;;;;;;1999.90;999.90;;;;;;;14.68;49.13;101170.19;4981704;28;98176;-77
2021/09/25 09:33:44;;;;;;;1999.90;999.90;;;;;;;14.70;49.30;101171.13;4998276;28;97161;-78
2021/09/25 09:36:30;;;;;;;1999.90;999.90;;;;;;;14.72;49.43;101161.28;4992451;28;96960;-79
2021/09/25 09:39:03;;;;;;;1999.90;999.90;;;;;;;14.75;49.38;101162.25;4998677;28;99869;-77
2021/09/25 09:41:34;;;;;;;1999.90;999.90;;;;;;;14.79;49.45;101164.03;4998051;28;98819;-78
2021/09/25 09:44:04;;;;;;;1999.90;999.90;;;;;;;14.83;48.91;101162.28;4997006;28;97985;-79
2021/09/25 09:46:38;;;;;;;1999.90;999.90;;;;;;;14.85;48.99;101171.25;4999179;28;97684;-77
2021/09/25 09:49:08;;;;;;;1999.90;999.90;;;;;;;14.88;48.90;101172.16;4995618;28;97749;-78
2021/09/25 09:51:55;;;;;;;1999.90;999.90;;;;;;;14.94;49.22;101171.31;5000089;28;99684;-77
2021/09/25 09:54:25;;;;;;;1999.90;999.90;;;;;;;14.98;48.90;101174.06;5001294;28;96880;-77
2021/09/25 09:56:54;;;;;;;1999.90;999.90;;;;;;;15.00;48.81;101176.75;4997317;28;97245;-77
2021/09/25 09:59:22;;;;;;;1999.90;999.90;;;;;;;15.04;48.56;101181.25;4997282;28;97909;-77
2021/09/25 10:01:50;;;;;;;1999.90;999.90;;;;;;;15.07;48.75;101183.97;4996430;28;99210;-77
2021/09/25 10:04:20;;;;;;;1999.90;999.90;;;;;;;15.11;48.42;101184.03;4997851;28;97262;-78
2021/09/25 10:06:51;;;;;;;1999.90;999.90;;;;;;;15.14;48.53;101176.00;4990110;28;98106;-78
2021/09/25 10:09:20;;;;;;;1999.90;999.90;;;;;;;15.20;48.49;101180.50;4994170;28;101104;-79
2021/09/25 10:11:49;;;;;;;1999.90;999.90;;;;;;;15.24;48.49;101181.44;4999563;28;98709;-78
2021/09/25 10:14:19;;;;;;;1999.90;999.90;;;;;;;15.27;48.46;101176.09;4999368;28;97948;-79
2021/09/25 10:16:47;;;;;;;1999.90;999.90;;;;;;;15.31;48.30;101173.50;4994269;28;98860;-80
2021/09/25 10:19:17;;;;;;;1999.90;999.90;;;;;;;15.35;48.52;101177.09;4981614;28;98712;-78
2021/09/25 10:21:49;;;;;;;1999.90;999.90;;;;;;;15.37;47.98;101176.22;5015973;27;100661;-78
2021/09/25 10:24:24;;;;;;;1999.90;999.90;;;;;;;15.35;48.06;101180.69;4999955;28;96934;-78
2021/09/25 10:26:52;;;;;;;1999.90;999.90;;;;;;;15.09;48.72;101183.09;4985224;28;97221;-77
2021/09/25 10:29:21;;;;;;;1999.90;999.90;;;;;;;14.94;48.95;101182.97;5000515;28;99297;-76
2021/09/25 10:31:50;;;;;;;1999.90;999.90;;;;;;;15.11;48.54;101180.44;4996085;28;97964;-76
2021/09/25 10:34:22;;;;;;;1999.90;999.90;;;;;;;14.93;49.07;101182.94;4999329;28;97323;-78
2021/09/25 10:36:54;;;;;;;1999.90;999.90;;;;;;;14.82;49.68;101192.66;5001885;28;97471;-77
2021/09/25 10:39:29;;;;;;;1999.90;999.90;;;;;;;14.77;49.44;101191.72;5002206;28;97628;-75
2021/09/25 10:42:10;;;;;;;1999.90;999.90;;;;;;;14.67;49.78;101187.13;5000588;28;98389;-76
2021/09/25 10:44:49;;;;;;;1999.90;999.90;;;;;;;14.59;49.83;101191.53;5000414;28;96977;-76
2021/09/25 10:47:20;;;;;;;1999.90;999.90;;;;;;;14.59;49.89;101194.19;5000532;28;96915;-76
2021/09/25 10:49:54;;;;;;;1999.90;999.90;;;;;;;14.57;50.23;101190.59;5000983;28;98282;-72
2021/09/25 10:52:41;;;;;;;1999.90;999.90;;;;;;;14.52;50.33;101185.16;5001453;28;98959;-72
2021/09/25 10:55:33;;;;;;;1999.90;999.90;;;;;;;14.52;50.47;101192.28;5012877;27;97842;-71